Terminal Aerodrome Forecast
Issued by NWS Cleveland, OH

Home | Current Version | Previous Version | Graphics & Text | Print | Product List | Glossary Off
Versions: 1 2 3 4 5 6 7 8 9 10 11 12 13 14 15 16 17 18 19 20 21 22 23 24

000
FTUS41 KCLE 310100 AAA
TAFCAK
TAF AMD
KCAK 310106Z 3101/3124 23004KT P6SM SCT040 BKN100
      TEMPO 3102/3103 4SM SHRA BKN030
     FM310400 24004KT 6SM BR SCT060
     FM310700 24004KT 4SM BR SCT060 BKN150
     FM311500 25008KT P6SM SCT045=

USA.gov is the U.S. government's official web portal to all federal, state and local government web resources and services.